Time;durP1;ratioP1;P1;durP2;ratioP2;P2;SDS_P1;SDS_P2;PMS_P1;PMS_P2;Temp;Humidity;BMP_temperature;BMP_pressure;BME280_temperature;BME280_humidity;BME280_pressure;Samples;Min_cycle;Max_cycle;Signal;HPM_P1;HPM_P2
2021/07/21 00:00:50;;;;;;;12.65;11.28;;;;;;;21.74;79.68;99556.75;1723167;81;21132;-82
2021/07/21 00:03:22;;;;;;;12.45;11.25;;;;;;;21.85;79.96;99562.09;1723850;81;21049;-82
2021/07/21 00:05:51;;;;;;;12.85;10.80;;;;;;;21.96;80.10;99563.11;1728672;81;20978;-82
2021/07/21 00:08:19;;;;;;;13.30;11.33;;;;;;;22.24;79.54;99558.54;1739356;81;21060;-82
2021/07/21 00:10:50;;;;;;;12.93;11.15;;;;;;;22.39;78.63;99555.72;1740836;81;21067;-82
2021/07/21 00:13:27;;;;;;;12.50;10.95;;;;;;;22.43;78.31;99555.95;1741264;81;21106;-82
2021/07/21 00:21:13;;;;;;;11.85;10.32;;;;;;;22.22;78.69;99555.30;1733477;81;21608;-82
2021/07/21 00:23:40;;;;;;;12.65;11.35;;;;;;;22.28;78.99;99549.59;1720633;82;21005;-82
2021/07/21 00:26:08;;;;;;;14.70;10.35;;;;;;;22.42;78.47;99555.16;1717870;81;21072;-82
2021/07/21 00:28:38;;;;;;;14.93;12.50;;;;;;;22.43;78.55;99552.69;1721614;81;21513;-82
2021/07/21 00:31:05;;;;;;;14.30;12.80;;;;;;;22.40;78.05;99554.63;1729300;81;21124;-82
2021/07/21 00:33:33;;;;;;;14.05;12.50;;;;;;;22.27;78.14;99556.10;1722155;81;21573;-83
2021/07/21 00:36:00;;;;;;;15.35;11.45;;;;;;;22.14;79.00;99554.81;1733965;81;21112;-83
2021/07/21 00:38:26;;;;;;;12.25;10.58;;;;;;;22.10;79.87;99552.97;1741578;81;21053;-82
2021/07/21 00:40:53;;;;;;;13.25;10.32;;;;;;;22.12;80.66;99552.13;1725780;81;21493;-79
2021/07/21 00:43:19;;;;;;;11.97;9.73;;;;;;;22.25;80.56;99554.22;1730970;81;21109;-83
2021/07/21 00:45:47;;;;;;;15.53;11.63;;;;;;;22.44;79.89;99546.17;1724341;82;21007;-81
2021/07/21 00:48:15;;;;;;;12.28;10.90;;;;;;;22.62;78.98;99547.36;1744945;81;21009;-81
2021/07/21 00:50:42;;;;;;;11.48;10.38;;;;;;;22.67;78.37;99545.93;1734534;81;21111;-81
2021/07/21 00:53:10;;;;;;;11.30;10.20;;;;;;;22.68;78.03;99547.56;1738764;81;20969;-81
2021/07/21 00:55:38;;;;;;;13.22;11.83;;;;;;;22.73;77.87;99548.05;1727716;81;21493;-80
2021/07/21 00:58:06;;;;;;;14.33;11.33;;;;;;;22.79;77.58;99544.72;1717467;81;21647;-80
2021/07/21 01:00:33;;;;;;;11.43;10.32;;;;;;;22.81;77.21;99543.87;1725820;81;21545;-80
2021/07/21 01:02:59;;;;;;;11.15;10.05;;;;;;;22.81;77.30;99539.80;1709318;82;21466;-80
2021/07/21 01:05:32;;;;;;;11.75;10.48;;;;;;;22.85;77.00;99534.05;1730643;81;21521;-80
2021/07/21 01:08:15;;;;;;;11.73;10.53;;;;;;;22.84;76.64;99529.17;1725263;81;21096;-86
2021/07/21 01:11:01;;;;;;;12.70;9.58;;;;;;;22.74;76.95;99528.75;1723550;81;21083;-83
2021/07/21 01:13:38;;;;;;;17.13;12.17;;;;;;;22.66;77.32;99530.75;1733578;81;21024;-84
2021/07/21 01:16:21;;;;;;;15.35;12.70;;;;;;;22.70;77.03;99526.91;1734217;81;21262;-84
2021/07/21 01:19:06;;;;;;;13.00;11.65;;;;;;;22.64;77.28;99526.69;1724234;82;21018;-85
2021/07/21 01:21:56;;;;;;;15.88;11.90;;;;;;;22.50;77.98;99526.56;1716955;81;21033;-85
2021/07/21 01:24:31;;;;;;;12.00;10.80;;;;;;;22.45;78.90;99523.89;1725315;82;21576;-85
2021/07/21 01:27:20;;;;;;;14.60;13.18;;;;;;;22.38;78.66;99519.34;1718576;82;21309;-85
2021/07/21 01:29:52;;;;;;;14.95;13.45;;;;;;;22.20;79.28;99528.44;1723548;81;21075;-85
2021/07/21 01:32:26;;;;;;;13.35;12.07;;;;;;;21.97;80.38;99526.73;1716664;81;21044;-84
2021/07/21 01:34:59;;;;;;;13.55;12.25;;;;;;;21.80;81.83;99533.66;1735575;82;21670;-84
2021/07/21 01:37:28;;;;;;;13.43;12.03;;;;;;;21.71;82.05;99531.53;1735314;81;21575;-85
2021/07/21 01:40:03;;;;;;;12.53;11.33;;;;;;;21.71;82.55;99531.53;1713102;82;21020;-86
2021/07/21 01:42:31;;;;;;;13.53;12.30;;;;;;;21.71;82.84;99530.73;1728828;81;21044;-85
2021/07/21 01:45:00;;;;;;;13.55;12.33;;;;;;;21.71;82.36;99534.25;1733632;81;21261;-85
2021/07/21 01:47:33;;;;;;;15.53;13.25;;;;;;;21.76;82.34;99532.06;1732582;81;21024;-84
2021/07/21 01:50:04;;;;;;;12.68;10.95;;;;;;;21.74;82.11;99530.98;1734122;81;21119;-85
2021/07/21 01:52:31;;;;;;;15.05;13.15;;;;;;;21.70;81.98;99531.28;1732144;81;21441;-84
2021/07/21 01:55:03;;;;;;;14.78;11.85;;;;;;;21.69;82.10;99530.20;1728270;81;21069;-85
2021/07/21 01:57:32;;;;;;;12.78;11.57;;;;;;;21.63;82.59;99532.14;1717884;82;21132;-82
2021/07/21 02:00:13;;;;;;;15.45;12.65;;;;;;;21.62;82.49;99529.16;1727455;81;21124;-85
2021/07/21 02:02:51;;;;;;;15.40;13.00;;;;;;;21.66;82.87;99525.34;1731694;81;21016;-85
2021/07/21 02:05:21;;;;;;;17.50;13.68;;;;;;;21.74;82.59;99528.27;1715107;81;21025;-84
2021/07/21 02:09:32;;;;;;;15.50;13.90;;;;;;;21.84;82.38;99520.59;1858385;75;22911;-85
2021/07/21 02:12:01;;;;;;;14.78;13.32;;;;;;;21.73;82.36;99523.13;1839847;76;20963;-86
2021/07/21 02:14:31;;;;;;;15.53;13.88;;;;;;;21.68;82.49;99521.80;1823257;78;21626;-86
2021/07/21 02:17:01;;;;;;;14.47;13.22;;;;;;;21.60;83.10;99521.05;1820311;78;20982;-85
2021/07/21 02:29:56;;;;;;;14.38;12.88;;;;;;;21.42;81.33;99530.08;1522373;92;21124;-85
2021/07/21 02:32:41;;;;;;;16.15;13.93;;;;;;;21.43;79.54;99535.75;1562848;90;21561;-85
2021/07/21 02:35:30;;;;;;;16.20;14.70;;;;;;;21.44;78.67;99537.41;1523271;90;21697;-85
2021/07/21 02:38:52;;;;;;;16.75;14.93;;;;;;;21.39;77.51;99543.63;1557607;90;21172;-85
2021/07/21 02:41:49;;;;;;;;;;;;;;;;;;;;;
2021/07/21 02:45:01;;;;;;;;;;;;;;;;;;;;;
2021/07/21 02:54:32;;;;;;;;;;;;;;;;;;;;;
2021/07/21 02:58:05;;;;;;;17.50;15.78;;;;;;;20.61;75.81;99540.95;1435477;98;21243;-85
2021/07/21 03:00:42;;;;;;;17.92;16.23;;;;;;;20.52;76.40;99550.69;1454123;91;21122;-85
2021/07/21 03:03:15;;;;;;;17.10;15.10;;;;;;;20.46;77.80;99552.34;1569806;86;21519;-84
2021/07/21 03:05:46;;;;;;;16.32;14.63;;;;;;;20.40;78.81;99547.47;1680417;83;20993;-84
2021/07/21 03:08:18;;;;;;;18.30;16.45;;;;;;;20.40;79.71;99550.17;1694777;83;21037;-85
2021/07/21 03:10:47;;;;;;;18.15;16.25;;;;;;;20.41;79.20;99548.52;1687932;83;21541;-81
2021/07/21 03:13:17;;;;;;;16.25;14.80;;;;;;;20.38;79.68;99557.20;1718518;82;21028;-85
2021/07/21 03:15:50;;;;;;;17.15;15.35;;;;;;;20.31;80.41;99557.22;1737266;81;21046;-85
2021/07/21 03:18:24;;;;;;;15.13;13.80;;;;;;;20.30;80.51;99560.44;1711806;82;21084;-85
2021/07/21 03:20:56;;;;;;;16.77;15.03;;;;;;;20.30;80.31;99564.50;1742078;80;21092;-85
2021/07/21 03:23:27;;;;;;;16.77;15.08;;;;;;;20.33;79.61;99569.38;1765812;79;20995;-84
2021/07/21 03:26:23;;;;;;;16.30;14.80;;;;;;;20.29;79.12;99569.66;1746298;81;20985;-85
2021/07/21 03:28:51;;;;;;;16.12;14.15;;;;;;;20.23;79.98;99565.34;1742131;80;21065;-84
2021/07/21 03:31:19;;;;;;;16.02;14.43;;;;;;;20.14;79.73;99571.02;1770266;80;21098;-84
2021/07/21 03:34:02;;;;;;;16.27;14.58;;;;;;;20.11;79.80;99571.55;1745854;80;21127;-84
2021/07/21 03:36:36;;;;;;;17.02;15.28;;;;;;;20.05;79.92;99578.05;1714224;81;20974;-83
2021/07/21 03:39:24;;;;;;;15.98;14.28;;;;;;;20.02;80.30;99578.86;1602546;87;20989;-83
2021/07/21 03:41:56;;;;;;;15.85;14.43;;;;;;;20.05;81.17;99599.14;1574261;88;21568;-83
2021/07/21 03:44:24;;;;;;;15.85;14.35;;;;;;;20.13;80.61;99603.20;1644422;80;20979;-84
2021/07/21 03:46:53;;;;;;;16.42;14.93;;;;;;;20.22;81.12;99609.70;1765582;80;20966;-84
2021/07/21 03:49:22;;;;;;;16.77;15.28;;;;;;;20.36;80.61;99608.61;1769366;80;20974;-86
2021/07/21 03:51:54;;;;;;;15.83;14.33;;;;;;;20.46;79.36;99607.82;1765526;80;21500;-84
2021/07/21 03:54:25;;;;;;;16.75;15.25;;;;;;;20.40;79.32;99607.81;1673660;81;20934;-83
2021/07/21 04:00:37;;;;;;;18.27;16.65;;;;;;;20.36;79.83;99619.44;1823824;75;28696;-82
2021/07/21 04:03:05;;;;;;;16.57;14.90;;;;;;;20.48;79.34;99615.13;1748633;80;21032;-84
2021/07/21 04:05:36;;;;;;;18.07;15.85;;;;;;;20.65;78.16;99611.61;1761899;80;21045;-84
2021/07/21 04:08:06;;;;;;;15.88;14.35;;;;;;;20.56;78.77;99623.50;1751161;80;21108;-84
2021/07/21 04:10:35;;;;;;;16.75;15.00;;;;;;;20.43;78.75;99619.44;1732429;80;21890;-85
2021/07/21 04:13:08;;;;;;;16.95;15.55;;;;;;;20.33;78.99;99629.47;1738615;80;21033;-84
2021/07/21 04:15:37;;;;;;;17.25;15.55;;;;;;;20.26;79.74;99632.98;1759244;80;20998;-85
2021/07/21 04:18:14;;;;;;;15.25;13.58;;;;;;;20.18;80.14;99631.07;1754209;80;21562;-85
2021/07/21 04:20:43;;;;;;;15.15;13.75;;;;;;;20.07;80.51;99629.98;1746123;80;21069;-85
2021/07/21 04:23:11;;;;;;;17.50;15.70;;;;;;;19.96;81.13;99635.91;1743915;81;21054;-84
2021/07/21 04:25:40;;;;;;;16.25;13.72;;;;;;;19.88;81.34;99635.09;1711293;80;21052;-83
2021/07/21 04:28:12;;;;;;;17.77;16.02;;;;;;;19.81;81.94;99635.33;1741050;80;21009;-83
2021/07/21 04:30:42;;;;;;;16.65;14.95;;;;;;;19.72;82.27;99636.41;1736285;80;21035;-83
2021/07/21 04:33:11;;;;;;;17.12;15.48;;;;;;;19.64;82.97;99643.08;1743134;80;21042;-87
2021/07/21 04:35:40;;;;;;;16.48;14.78;;;;;;;19.64;82.97;99634.17;1746850;81;21046;-85
2021/07/21 04:38:09;;;;;;;16.32;14.45;;;;;;;19.62;83.54;99632.27;1728834;81;21073;-87
2021/07/21 04:40:56;;;;;;;17.77;15.60;;;;;;;19.59;83.30;99628.73;1727313;81;21008;-89
2021/07/21 04:43:46;;;;;;;17.35;15.45;;;;;;;19.56;83.91;99623.88;1737705;81;21054;-89
2021/07/21 04:46:24;;;;;;;17.57;14.33;;;;;;;19.57;83.41;99618.22;1719319;81;21014;-87
2021/07/21 04:48:58;;;;;;;15.15;13.75;;;;;;;19.56;83.42;99623.88;1730003;82;21129;-88
2021/07/21 04:51:24;;;;;;;15.53;13.90;;;;;;;19.48;83.18;99621.16;1725988;82;21109;-88
2021/07/21 04:54:02;;;;;;;16.45;14.80;;;;;;;19.43;83.19;99622.48;1719421;82;21069;-90
2021/07/21 04:56:29;;;;;;;14.38;12.90;;;;;;;19.44;83.30;99626.27;1725583;82;21072;-82
2021/07/21 04:58:56;;;;;;;15.75;14.15;;;;;;;19.43;83.48;99619.23;1692308;82;21034;-86
2021/07/21 05:01:23;;;;;;;14.38;12.95;;;;;;;19.41;83.53;99626.78;1709480;81;21108;-84
2021/07/21 05:03:54;;;;;;;12.70;11.50;;;;;;;19.40;84.04;99631.09;1700409;83;21155;-84
2021/07/21 05:06:22;;;;;;;13.48;12.18;;;;;;;19.48;83.42;99628.42;1694119;83;21131;-84
2021/07/21 05:08:51;;;;;;;11.88;10.88;;;;;;;19.57;82.59;99629.55;1703540;83;21090;-84
2021/07/21 05:11:25;;;;;;;12.47;11.25;;;;;;;19.64;82.24;99629.56;1706973;82;21104;-85
2021/07/21 05:13:54;;;;;;;12.90;11.57;;;;;;;19.69;81.03;99625.28;1727725;81;21540;-83
2021/07/21 05:16:24;;;;;;;11.80;10.60;;;;;;;19.62;81.59;99626.31;1704614;82;21098;-85
2021/07/21 05:18:52;;;;;;;15.40;11.45;;;;;;;19.55;81.66;99619.02;1724802;82;21681;-83
2021/07/21 05:21:24;;;;;;;13.65;11.22;;;;;;;19.54;82.06;99627.39;1722649;82;21059;-83
2021/07/21 05:23:51;;;;;;;15.13;11.03;;;;;;;19.54;82.14;99626.03;1696822;81;20990;-82
2021/07/21 05:26:17;;;;;;;12.40;11.15;;;;;;;19.56;81.30;99631.98;1730741;81;21009;-82
2021/07/21 05:28:45;;;;;;;11.53;10.43;;;;;;;19.58;81.39;99621.17;1699781;81;21054;-82
2021/07/21 05:31:30;;;;;;;10.25;9.30;;;;;;;19.60;81.16;99627.67;1721400;81;20968;-82
2021/07/21 05:34:15;;;;;;;10.13;7.83;;;;;;;19.69;80.25;99622.58;1734239;81;21045;-82
2021/07/21 05:36:42;;;;;;;12.53;10.18;;;;;;;19.81;78.03;99617.75;1736628;81;21089;-83
2021/07/21 05:39:11;;;;;;;11.68;9.68;;;;;;;19.89;77.58;99623.17;1728436;81;21042;-83
2021/07/21 05:41:38;;;;;;;10.15;9.20;;;;;;;19.77;77.46;99590.98;1731914;81;21627;-85
2021/07/21 05:44:05;;;;;;;9.03;8.08;;;;;;;20.08;77.69;99622.95;1703800;82;21029;-84
2021/07/21 05:46:35;;;;;;;11.50;9.70;;;;;;;20.13;77.12;99623.49;1743907;80;21172;-83
2021/07/21 05:49:01;;;;;;;9.58;8.65;;;;;;;20.16;76.36;99618.91;1734197;80;21070;-82
2021/07/21 05:51:35;;;;;;;8.53;7.83;;;;;;;20.16;76.00;99616.20;1754090;80;21075;-84
2021/07/21 05:54:04;;;;;;;8.78;8.00;;;;;;;20.22;75.56;99615.11;1744969;80;21041;-85
2021/07/21 05:56:31;;;;;;;8.60;7.62;;;;;;;20.27;74.66;99617.00;1749328;80;21188;-83
2021/07/21 05:59:01;;;;;;;9.55;8.38;;;;;;;20.45;73.94;99612.95;1749759;80;20955;-82
2021/07/21 06:01:30;;;;;;;10.45;7.58;;;;;;;20.83;74.21;99616.19;1745522;81;21081;-83
2021/07/21 06:03:56;;;;;;;9.15;8.25;;;;;;;21.06;71.54;99616.12;1696030;83;21070;-83
2021/07/21 06:06:26;;;;;;;9.00;8.10;;;;;;;21.27;71.62;99614.98;1716709;82;21503;-83
2021/07/21 06:09:02;;;;;;;9.55;8.68;;;;;;;21.39;70.57;99620.88;1712025;82;21011;-83
2021/07/21 06:11:31;;;;;;;9.05;8.20;;;;;;;21.56;69.65;99623.83;1712711;82;21512;-81
2021/07/21 06:14:00;;;;;;;8.78;7.90;;;;;;;21.73;70.16;99618.05;1715736;82;21661;-83
2021/07/21 06:16:29;;;;;;;8.43;7.62;;;;;;;21.83;69.25;99624.78;1709522;82;21062;-83
2021/07/21 06:18:57;;;;;;;8.25;6.72;;;;;;;21.78;67.15;99629.68;1702537;82;21107;-83
2021/07/21 06:21:24;;;;;;;7.62;6.37;;;;;;;21.69;67.38;99623.22;1652590;85;21146;-82
2021/07/21 06:24:09;;;;;;;9.88;6.55;;;;;;;21.78;65.65;99626.97;1692888;83;21095;-84
2021/07/21 06:26:36;;;;;;;7.58;6.37;;;;;;;22.19;64.51;99621.84;1684823;84;21017;-84
2021/07/21 06:29:04;;;;;;;9.35;6.58;;;;;;;22.62;63.02;99626.66;1699611;82;21389;-82
2021/07/21 06:31:31;;;;;;;8.10;6.25;;;;;;;22.83;61.77;99624.55;1717975;82;21081;-83
2021/07/21 06:33:58;;;;;;;7.40;6.47;;;;;;;22.97;60.16;99628.77;1658163;84;21294;-83
2021/07/21 06:36:24;;;;;;;7.33;6.22;;;;;;;23.05;61.43;99614.02;1707016;83;21023;-83
2021/07/21 06:38:51;;;;;;;9.05;6.70;;;;;;;23.23;61.69;99621.17;1672492;84;21590;-81
2021/07/21 06:41:19;;;;;;;8.83;6.20;;;;;;;23.50;61.11;99624.08;1672938;83;21019;-81
2021/07/21 06:43:52;;;;;;;7.87;7.05;;;;;;;23.77;58.88;99622.66;1657180;84;21102;-80
2021/07/21 06:46:21;;;;;;;9.50;6.10;;;;;;;23.86;58.31;99628.27;1676885;84;21038;-80
2021/07/21 06:48:49;;;;;;;6.53;5.92;;;;;;;23.81;57.52;99623.72;1660305;84;21019;-82
2021/07/21 06:51:18;;;;;;;8.05;6.72;;;;;;;23.85;57.52;99624.74;1686398;84;21109;-80
2021/07/21 06:53:44;;;;;;;7.75;6.22;;;;;;;23.93;56.88;99622.47;1694036;84;21078;-81
2021/07/21 06:56:14;;;;;;;6.90;5.78;;;;;;;23.98;57.79;99621.84;1664773;84;21051;-80
2021/07/21 06:58:44;;;;;;;6.00;5.42;;;;;;;23.88;56.79;99629.61;1685316;84;21105;-80
2021/07/21 07:01:14;;;;;;;6.35;5.30;;;;;;;23.65;56.88;99622.27;1708977;82;21053;-80
2021/07/21 07:03:59;;;;;;;7.15;6.17;;;;;;;23.40;58.13;99623.42;1646809;86;21079;-81
2021/07/21 07:06:43;;;;;;;7.70;5.80;;;;;;;23.22;59.00;99612.19;1674477;84;21040;-81
2021/07/21 07:09:15;;;;;;;7.87;5.58;;;;;;;23.30;58.54;99622.97;1684506;83;21642;-80
2021/07/21 07:11:59;;;;;;;6.33;5.37;;;;;;;23.29;58.87;99619.45;1718997;82;21498;-81
2021/07/21 07:14:25;;;;;;;5.62;5.12;;;;;;;23.32;59.32;99624.88;1681207;84;21093;-80
2021/07/21 07:16:52;;;;;;;7.53;6.20;;;;;;;23.36;59.29;99631.34;1659508;84;21114;-80
2021/07/21 07:19:19;;;;;;;6.10;5.60;;;;;;;23.29;59.85;99632.25;1696383;83;20998;-81
2021/07/21 07:21:48;;;;;;;8.50;5.00;;;;;;;23.27;59.98;99625.73;1680284;84;21928;-80
2021/07/21 07:24:15;;;;;;;9.25;5.53;;;;;;;23.32;60.85;99628.40;1710086;82;21002;-82
2021/07/21 07:26:43;;;;;;;5.75;5.00;;;;;;;23.38;59.70;99631.06;1693473;84;21100;-82
2021/07/21 07:29:09;;;;;;;6.75;5.30;;;;;;;23.33;59.29;99632.72;1680124;84;21038;-83
2021/07/21 07:31:35;;;;;;;7.47;5.70;;;;;;;23.05;60.05;99638.47;1684716;83;21673;-80
2021/07/21 07:34:01;;;;;;;6.70;5.92;;;;;;;22.85;60.91;99631.86;1685119;83;21089;-80
2021/07/21 07:36:28;;;;;;;5.70;5.30;;;;;;;22.80;62.02;99641.44;1708808;82;20991;-81
2021/07/21 07:38:54;;;;;;;5.58;5.20;;;;;;;22.87;61.68;99631.05;1687515;84;21007;-81
2021/07/21 07:41:21;;;;;;;6.00;5.50;;;;;;;22.98;61.91;99636.64;1687856;82;21543;-81
2021/07/21 07:43:50;;;;;;;6.60;6.03;;;;;;;23.16;61.48;99635.10;1692432;83;21130;-80
2021/07/21 07:46:18;;;;;;;6.37;5.53;;;;;;;23.24;61.12;99635.02;1680279;83;21538;-81
2021/07/21 07:48:45;;;;;;;6.30;5.53;;;;;;;23.15;62.04;99625.88;1707499;82;21339;-83
2021/07/21 07:51:11;;;;;;;7.25;6.22;;;;;;;23.12;61.78;99632.70;1682300;84;21062;-82
2021/07/21 07:53:37;;;;;;;6.95;6.05;;;;;;;23.17;62.29;99634.55;1696522;83;21547;-81
2021/07/21 07:56:04;;;;;;;7.97;5.92;;;;;;;23.25;62.49;99627.94;1692907;84;21204;-81
2021/07/21 07:58:30;;;;;;;6.62;5.87;;;;;;;23.41;62.07;99628.55;1696499;83;21102;-80
2021/07/21 08:00:56;;;;;;;7.33;5.65;;;;;;;23.60;61.36;99625.05;1696336;83;21082;-80
2021/07/21 08:03:23;;;;;;;6.35;5.67;;;;;;;23.69;61.65;99635.55;1681122;84;21528;-80
2021/07/21 08:05:53;;;;;;;6.37;5.53;;;;;;;23.71;62.12;99626.53;1685607;84;21010;-79
2021/07/21 08:08:16;;;;;;;7.83;5.97;;;;;;;23.77;61.40;99621.83;1688213;84;21072;-80
2021/07/21 08:10:42;;;;;;;7.78;6.25;;;;;;;23.82;59.96;99621.80;1685878;84;21145;-79
2021/07/21 08:13:09;;;;;;;6.05;5.55;;;;;;;23.71;59.54;99630.08;1668064;84;20964;-81
2021/07/21 08:15:35;;;;;;;8.45;6.28;;;;;;;23.68;58.30;99623.86;1675355;84;21598;-81
2021/07/21 08:18:01;;;;;;;5.22;4.83;;;;;;;23.74;58.33;99629.23;1691683;84;21054;-81
2021/07/21 08:20:27;;;;;;;6.35;5.85;;;;;;;23.75;58.08;99641.16;1685978;84;21028;-80
2021/07/21 08:22:56;;;;;;;6.15;5.65;;;;;;;23.71;58.89;99627.89;1678867;84;21139;-81
2021/07/21 08:25:24;;;;;;;4.97;4.55;;;;;;;23.66;58.96;99632.06;1707295;84;21316;-81
2021/07/21 08:27:55;;;;;;;6.90;5.25;;;;;;;23.68;57.51;99639.38;1649094;85;21075;-81
2021/07/21 08:30:25;;;;;;;5.87;5.37;;;;;;;23.58;56.78;99635.42;1680172;84;21006;-80
2021/07/21 08:32:53;;;;;;;5.90;5.35;;;;;;;23.51;56.61;99648.83;1692249;84;21543;-81
2021/07/21 08:35:25;;;;;;;5.58;4.97;;;;;;;23.48;57.05;99658.92;1698269;83;21002;-82
2021/07/21 08:37:51;;;;;;;7.95;4.83;;;;;;;23.49;57.92;99656.47;1686273;84;21499;-83
2021/07/21 08:40:20;;;;;;;5.50;5.00;;;;;;;23.49;58.41;99646.95;1690820;84;21162;-81
2021/07/21 08:42:47;;;;;;;5.22;4.72;;;;;;;23.56;58.61;99649.86;1683463;84;21080;-80
2021/07/21 08:45:14;;;;;;;5.67;5.05;;;;;;;23.65;58.03;99657.64;1671035;84;21106;-79
2021/07/21 08:47:45;;;;;;;6.25;4.75;;;;;;;23.71;56.32;99651.02;1693990;83;21441;-80
2021/07/21 08:50:11;;;;;;;5.45;4.95;;;;;;;23.84;57.33;99643.52;1701457;83;20991;-80
2021/07/21 08:52:40;;;;;;;4.37;4.08;;;;;;;24.01;56.81;99649.81;1689337;84;21153;-81
2021/07/21 08:55:10;;;;;;;4.95;4.50;;;;;;;24.16;54.79;99641.17;1678003;84;21040;-80
2021/07/21 08:57:38;;;;;;;7.75;4.75;;;;;;;24.23;53.99;99646.50;1682689;83;21129;-81
2021/07/21 09:00:12;;;;;;;6.00;3.80;;;;;;;24.19;53.31;99647.40;1722964;82;21027;-81
2021/07/21 09:02:39;;;;;;;4.72;4.42;;;;;;;24.20;53.32;99644.91;1709883;82;21566;-81
2021/07/21 09:05:08;;;;;;;12.73;4.90;;;;;;;24.20;53.64;99648.44;1692930;82;21557;-80
2021/07/21 09:07:38;;;;;;;8.08;4.80;;;;;;;24.25;53.79;99645.64;1704222;82;21085;-78
2021/07/21 09:10:08;;;;;;;4.60;4.20;;;;;;;24.33;53.77;99642.80;1701184;82;21039;-80
2021/07/21 09:12:42;;;;;;;4.65;4.20;;;;;;;24.42;54.04;99642.37;1701950;82;21071;-82
2021/07/21 09:15:18;;;;;;;4.85;3.98;;;;;;;24.53;54.52;99639.53;1711489;82;21165;-82
2021/07/21 09:18:05;;;;;;;4.87;3.87;;;;;;;24.61;53.77;99645.09;1718563;82;21205;-79
2021/07/21 09:20:35;;;;;;;3.62;3.40;;;;;;;24.60;53.92;99635.84;1709211;82;21320;-82
2021/07/21 09:23:03;;;;;;;4.15;3.70;;;;;;;24.58;52.85;99651.69;1708301;82;21685;-81
2021/07/21 09:25:34;;;;;;;4.15;3.65;;;;;;;24.54;52.38;99648.75;1699753;82;21207;-80
2021/07/21 09:28:07;;;;;;;4.28;3.92;;;;;;;24.43;52.01;99652.71;1708378;82;21063;-81
2021/07/21 09:30:41;;;;;;;3.37;3.17;;;;;;;24.33;51.95;99643.36;1702238;84;21072;-81
2021/07/21 09:33:14;;;;;;;3.17;2.85;;;;;;;24.29;52.71;99643.94;1700801;82;21314;-82
2021/07/21 09:35:51;;;;;;;5.95;3.47;;;;;;;24.29;52.62;99652.11;1663322;85;21608;-81
2021/07/21 09:38:25;;;;;;;3.80;3.42;;;;;;;24.36;52.76;99642.22;1661813;85;21541;-81
2021/07/21 09:40:56;;;;;;;4.22;3.92;;;;;;;24.49;52.34;99638.73;1664095;85;21030;-80
2021/07/21 09:43:31;;;;;;;4.50;4.08;;;;;;;24.54;52.21;99645.22;1663661;85;21129;-82
2021/07/21 09:46:07;;;;;;;3.83;3.52;;;;;;;24.50;51.24;99674.94;1662262;84;21176;-81
2021/07/21 09:48:46;;;;;;;4.78;3.65;;;;;;;24.39;51.34;99648.44;1665272;85;21567;-82
2021/07/21 09:51:34;;;;;;;4.80;3.60;;;;;;;24.36;51.36;99642.77;1633063;86;21190;-81
2021/07/21 09:54:19;;;;;;;4.70;4.10;;;;;;;24.40;51.06;99632.91;1655899;85;21075;-82
2021/07/21 09:56:50;;;;;;;3.47;3.17;;;;;;;24.44;52.09;99636.08;1671809;84;21066;-83
2021/07/21 10:00:27;;;;;;;3.98;3.67;;;;;;;24.60;52.25;99633.95;1844402;76;22965;-85
2021/07/21 10:03:22;;;;;;;3.05;2.90;;;;;;;24.71;52.51;99631.03;1794277;77;21094;-82
2021/07/21 10:06:09;;;;;;;6.92;3.55;;;;;;;24.76;52.17;99633.11;1769869;78;21040;-81
2021/07/21 10:08:54;;;;;;;3.70;3.30;;;;;;;24.74;52.30;99641.34;1768918;77;21050;-83
2021/07/21 10:11:29;;;;;;;4.20;4.00;;;;;;;24.76;51.93;99618.13;1776677;78;21625;-81
2021/07/21 10:14:07;;;;;;;4.08;3.30;;;;;;;24.81;52.11;99614.52;1791659;79;21117;-81
2021/07/21 10:16:52;;;;;;;3.55;3.35;;;;;;;24.86;51.56;99615.77;1753922;78;21006;-79
2021/07/21 10:19:25;;;;;;;3.58;3.27;;;;;;;24.94;51.51;99607.44;1732736;80;21085;-81
2021/07/21 10:22:00;;;;;;;4.08;3.67;;;;;;;25.06;50.78;99614.02;1743401;80;21123;-80
2021/07/21 10:24:34;;;;;;;4.10;3.62;;;;;;;25.13;50.87;99614.16;1756428;78;21057;-82
2021/07/21 10:27:02;;;;;;;4.33;3.92;;;;;;;25.04;51.53;99614.08;1767297;80;21046;-81
2021/07/21 10:29:29;;;;;;;5.15;4.17;;;;;;;24.85;51.18;99622.34;1743200;80;21009;-81
2021/07/21 10:31:57;;;;;;;3.70;3.50;;;;;;;24.75;50.96;99616.52;1740215;80;21079;-83
2021/07/21 10:34:25;;;;;;;4.42;4.03;;;;;;;24.69;51.01;99625.88;1737186;80;21118;-83
2021/07/21 10:36:52;;;;;;;4.50;3.08;;;;;;;24.65;51.41;99624.87;1736799;80;21053;-80
2021/07/21 10:39:28;;;;;;;5.17;3.60;;;;;;;24.62;51.37;99618.64;1744707;80;21049;-83
2021/07/21 10:41:56;;;;;;;4.03;3.60;;;;;;;24.58;51.62;99621.19;1729346;80;21067;-81
2021/07/21 10:44:24;;;;;;;5.37;4.15;;;;;;;24.58;51.98;99620.36;1701817;82;21013;-82
2021/07/21 10:46:54;;;;;;;10.15;4.05;;;;;;;24.57;52.07;99614.67;1719651;82;21054;-80
2021/07/21 10:49:48;;;;;;;3.67;3.35;;;;;;;24.52;52.17;99604.66;1711886;81;20994;-82
2021/07/21 11:00:28;;;;;;;4.12;3.83;;;;;;;24.70;50.92;99622.06;1723184;81;21121;-80
2021/07/21 11:03:18;;;;;;;4.47;4.08;;;;;;;24.78;50.83;99613.74;1742706;80;21007;-81
2021/07/21 11:05:50;;;;;;;3.55;3.35;;;;;;;24.83;50.79;99611.73;1741548;80;20970;-82
2021/07/21 11:08:18;;;;;;;4.40;3.30;;;;;;;24.92;50.65;99603.67;1739839;81;21131;-81
2021/07/21 11:10:48;;;;;;;3.85;3.42;;;;;;;25.00;50.48;99611.14;1719610;81;21059;-81
2021/07/21 11:13:36;;;;;;;4.30;3.42;;;;;;;25.06;50.07;99611.29;1731314;80;21061;-80
2021/07/21 11:16:07;;;;;;;3.80;3.37;;;;;;;25.05;50.90;99609.69;1734815;80;21052;-80
2021/07/21 11:18:41;;;;;;;3.92;3.60;;;;;;;25.08;51.15;99605.53;1752673;80;21553;-80
2021/07/21 11:21:17;;;;;;;3.67;3.37;;;;;;;25.14;50.67;99617.15;1731240;79;21641;-82
2021/07/21 11:23:58;;;;;;;4.03;2.85;;;;;;;25.20;49.46;99610.48;1739545;80;21601;-81
2021/07/21 11:26:43;;;;;;;3.47;3.22;;;;;;;25.18;49.62;99609.41;1734378;81;21488;-80
2021/07/21 11:29:32;;;;;;;7.50;3.40;;;;;;;25.19;49.68;99606.15;1730729;81;21566;-81
2021/07/21 11:31:58;;;;;;;3.67;3.37;;;;;;;25.18;49.92;99611.34;1719057;81;21098;-80
2021/07/21 11:34:31;;;;;;;3.85;3.55;;;;;;;25.14;50.29;99604.88;1712159;81;21043;-79
2021/07/21 11:37:06;;;;;;;3.67;3.37;;;;;;;25.17;50.31;99603.72;1721385;80;21116;-82
2021/07/21 11:39:47;;;;;;;4.80;3.65;;;;;;;25.26;49.40;99610.68;1714778;81;21098;-83
2021/07/21 11:42:38;;;;;;;4.75;2.98;;;;;;;25.36;49.94;99619.20;1733622;81;21002;-80
2021/07/21 11:45:14;;;;;;;3.60;3.00;;;;;;;25.39;50.62;99616.67;1715131;81;21026;-82
2021/07/21 11:47:49;;;;;;;3.27;3.08;;;;;;;25.34;51.58;99620.86;1715246;81;21102;-84
2021/07/21 11:50:29;;;;;;;2.60;2.40;;;;;;;25.30;51.79;99619.03;1738673;80;21094;-84
2021/07/21 11:53:04;;;;;;;4.87;3.35;;;;;;;25.20;52.44;99618.13;1684912;83;21581;-81
2021/07/21 11:55:34;;;;;;;3.60;3.08;;;;;;;25.05;53.17;99623.32;1673512;83;21608;-83
2021/07/21 11:58:13;;;;;;;7.12;3.72;;;;;;;24.98;53.35;99633.81;1676747;83;21029;-83
2021/07/21 12:00:43;;;;;;;3.52;3.22;;;;;;;24.90;53.44;99633.69;1662657;82;21079;-81
2021/07/21 12:03:09;;;;;;;3.72;3.42;;;;;;;24.83;53.58;99634.09;1683484;83;21211;-80
2021/07/21 12:05:36;;;;;;;5.60;3.90;;;;;;;24.82;53.29;99632.47;1692081;82;21070;-83
2021/07/21 12:08:06;;;;;;;3.17;2.98;;;;;;;24.80;53.36;99635.48;1685164;83;21092;-81
2021/07/21 12:10:34;;;;;;;4.20;3.15;;;;;;;24.74;53.38;99638.62;1680454;82;21037;-82
2021/07/21 12:13:11;;;;;;;3.05;2.72;;;;;;;24.60;54.35;99638.04;1669781;83;21031;-81
2021/07/21 12:15:39;;;;;;;3.45;2.87;;;;;;;24.48;55.09;99658.09;1689437;84;21100;-82
2021/07/21 12:18:13;;;;;;;5.87;2.60;;;;;;;24.24;56.90;99650.85;1669685;84;21175;-81
2021/07/21 12:20:45;;;;;;;3.77;2.83;;;;;;;24.01;56.54;99655.26;1690873;83;21005;-84
2021/07/21 12:23:13;;;;;;;2.80;2.60;;;;;;;23.84;57.81;99648.97;1666514;84;21121;-83
2021/07/21 12:25:41;;;;;;;5.30;3.80;;;;;;;23.75;58.44;99642.52;1684924;84;21037;-82
2021/07/21 12:28:11;;;;;;;4.53;2.60;;;;;;;23.65;55.69;99646.20;1686404;84;21087;-82
2021/07/21 12:30:37;;;;;;;15.35;4.50;;;;;;;23.65;55.62;99656.28;1658614;84;21129;-84